Time;durP1;ratioP1;P1;durP2;ratioP2;P2;SDS_P1;SDS_P2;PMS_P1;PMS_P2;Temp;Humidity;BMP_temperature;BMP_pressure;BME280_temperature;BME280_humidity;BME280_pressure;Samples;Min_cycle;Max_cycle;Signal;HPM_P1;HPM_P2
2022/11/30 00:01:14;;;;;;;0.50;0.40;;;8.00;99.90;;;;;;5091399;28;20197;-77
2022/11/30 00:03:42;;;;;;;0.50;0.40;;;7.90;99.90;;;;;;5091251;28;20213;-77
2022/11/30 00:06:10;;;;;;;1.35;1.25;;;7.90;99.90;;;;;;5090716;28;20748;-77
2022/11/30 00:08:37;;;;;;;2.83;2.65;;;8.00;99.90;;;;;;5091382;28;20296;-77
2022/11/30 00:11:10;;;;;;;0.50;0.40;;;8.00;99.90;;;;;;5091401;28;20283;-78
2022/11/30 00:13:37;;;;;;;0.50;0.50;;;8.00;99.90;;;;;;5091467;28;20199;-77
2022/11/30 00:16:04;;;;;;;0.60;0.60;;;8.00;99.90;;;;;;5084462;28;20280;-77
2022/11/30 00:18:31;;;;;;;0.50;0.40;;;8.00;99.90;;;;;;5082961;28;20196;-76
2022/11/30 00:21:00;;;;;;;9.20;2.05;;;8.00;99.90;;;;;;5091662;28;20581;-77
2022/11/30 00:23:31;;;;;;;0.70;0.70;;;8.00;99.90;;;;;;5091209;28;20213;-77
2022/11/30 00:26:00;;;;;;;0.85;0.85;;;8.10;99.90;;;;;;5089862;28;20200;-77
2022/11/30 00:28:30;;;;;;;2.65;2.55;;;8.10;99.90;;;;;;5091511;28;20193;-77
2022/11/30 00:30:58;;;;;;;0.50;0.40;;;8.10;99.90;;;;;;5091106;28;20212;-77
2022/11/30 00:33:25;;;;;;;1.92;1.85;;;8.00;99.90;;;;;;5091421;28;20196;-77
2022/11/30 00:35:58;;;;;;;0.50;0.40;;;8.00;99.90;;;;;;5090198;28;20540;-77
2022/11/30 00:38:25;;;;;;;0.52;0.50;;;8.10;99.90;;;;;;5090674;28;20200;-77
2022/11/30 00:40:52;;;;;;;0.50;0.40;;;8.10;99.90;;;;;;5091377;28;20296;-77
2022/11/30 00:43:19;;;;;;;0.50;0.40;;;8.10;99.90;;;;;;5091455;28;20221;-77
2022/11/30 00:45:47;;;;;;;0.50;0.40;;;8.10;99.90;;;;;;5084560;28;20218;-77
2022/11/30 00:48:14;;;;;;;6.43;3.15;;;8.10;99.90;;;;;;5082271;28;20192;-77
2022/11/30 00:50:41;;;;;;;0.50;0.40;;;8.10;99.90;;;;;;5089767;28;20200;-77
2022/11/30 00:53:08;;;;;;;0.50;0.40;;;8.10;99.90;;;;;;5091163;28;20558;-77
2022/11/30 00:55:35;;;;;;;12.82;5.57;;;8.10;99.90;;;;;;5090320;28;20209;-77
2022/11/30 00:58:02;;;;;;;0.50;0.40;;;8.20;99.90;;;;;;5090970;28;20280;-77
2022/11/30 01:00:28;;;;;;;1.23;1.23;;;8.10;99.90;;;;;;5089834;28;20544;-77
2022/11/30 01:02:58;;;;;;;0.50;0.40;;;8.10;99.90;;;;;;5090777;28;20614;-77
2022/11/30 01:05:25;;;;;;;0.50;0.40;;;8.10;99.90;;;;;;5090158;28;20209;-77
2022/11/30 01:07:52;;;;;;;0.50;0.40;;;8.10;99.90;;;;;;5092426;28;20684;-76
2022/11/30 01:10:19;;;;;;;0.50;0.40;;;8.10;99.90;;;;;;5094799;28;20197;-77
2022/11/30 01:12:45;;;;;;;3.40;3.03;;;8.10;99.90;;;;;;5094644;28;20196;-77
2022/11/30 01:15:12;;;;;;;3.17;2.97;;;8.10;99.90;;;;;;5135372;22;20234;-80
2022/11/30 01:17:39;;;;;;;1.05;1.05;;;8.20;99.90;;;;;;5030909;28;20192;-80
2022/11/30 01:20:08;;;;;;;1.05;1.05;;;8.10;99.90;;;;;;5043117;28;20207;-80
2022/11/30 01:22:35;;;;;;;0.50;0.40;;;8.10;99.90;;;;;;5036870;28;20704;-80
2022/11/30 01:25:02;;;;;;;0.50;0.40;;;8.10;99.90;;;;;;5039326;28;20314;-82
2022/11/30 01:27:29;;;;;;;2.40;2.25;;;8.10;99.90;;;;;;5047378;28;20312;-81
2022/11/30 01:29:56;;;;;;;0.50;0.40;;;8.10;99.90;;;;;;5045728;28;20284;-78
2022/11/30 01:32:23;;;;;;;1.40;1.30;;;8.10;99.90;;;;;;5047859;28;20192;-80
2022/11/30 01:34:49;;;;;;;1.73;1.73;;;8.10;99.90;;;;;;5046202;28;20209;-81
2022/11/30 01:37:17;;;;;;;0.52;0.50;;;8.20;99.90;;;;;;5039570;28;20202;-80
2022/11/30 01:39:44;;;;;;;0.50;0.40;;;8.10;99.90;;;;;;5036257;28;20195;-80
2022/11/30 01:42:15;;;;;;;0.98;0.98;;;8.00;99.90;;;;;;5036180;28;20238;-81
2022/11/30 01:44:54;;;;;;;4.70;4.25;;;7.90;99.90;;;;;;5035447;28;20183;-81
2022/11/30 01:47:26;;;;;;;0.50;0.40;;;7.80;99.90;;;;;;5030265;28;20194;-81
2022/11/30 01:49:58;;;;;;;2.05;1.95;;;7.80;99.90;;;;;;5016428;28;20207;-81
2022/11/30 01:52:32;;;;;;;0.50;0.40;;;7.80;99.90;;;;;;5016011;28;20206;-81
2022/11/30 01:55:08;;;;;;;0.50;0.40;;;7.80;99.90;;;;;;5015835;28;20279;-79
2022/11/30 01:57:38;;;;;;;0.50;0.40;;;7.80;99.90;;;;;;5015855;28;20191;-79
2022/11/30 02:00:08;;;;;;;2.22;2.03;;;7.80;99.90;;;;;;5016484;28;20267;-79
2022/11/30 02:02:44;;;;;;;0.50;0.40;;;7.80;99.90;;;;;;5015870;28;20327;-79
2022/11/30 02:05:12;;;;;;;1.95;1.85;;;7.80;99.90;;;;;;5014960;28;20577;-79
2022/11/30 02:07:41;;;;;;;0.50;0.40;;;7.80;99.90;;;;;;5015979;28;20200;-79
2022/11/30 02:10:12;;;;;;;0.60;0.60;;;7.70;99.90;;;;;;5015802;28;20291;-79
2022/11/30 02:12:51;;;;;;;0.60;0.60;;;7.60;99.90;;;;;;5015588;28;20287;-79
2022/11/30 02:15:25;;;;;;;0.50;0.40;;;7.60;99.90;;;;;;5017742;28;20227;-80
2022/11/30 02:17:58;;;;;;;0.50;0.40;;;7.50;99.90;;;;;;5046648;28;20187;-80
2022/11/30 02:20:41;;;;;;;2.60;1.10;;;7.50;99.90;;;;;;5054417;28;20179;-81
2022/11/30 02:23:30;;;;;;;1.25;1.15;;;7.50;99.90;;;;;;5055074;28;20210;-80
2022/11/30 02:26:07;;;;;;;3.60;2.80;;;7.40;99.90;;;;;;5054572;28;20351;-81
2022/11/30 02:29:02;;;;;;;0.60;0.60;;;7.50;99.90;;;;;;5055184;28;20179;-80
2022/11/30 02:31:35;;;;;;;7.32;4.72;;;7.40;99.90;;;;;;5055023;28;20274;-79
2022/11/30 02:34:04;;;;;;;5.60;3.13;;;7.30;99.90;;;;;;5054349;28;20285;-81
2022/11/30 02:36:32;;;;;;;1.45;0.98;;;7.20;99.90;;;;;;5054752;28;20226;-81
2022/11/30 02:38:59;;;;;;;0.50;0.40;;;7.20;99.90;;;;;;5054607;28;20198;-79
2022/11/30 02:41:25;;;;;;;0.50;0.40;;;7.20;99.90;;;;;;5055480;28;20204;-79
2022/11/30 02:43:54;;;;;;;0.50;0.40;;;7.20;99.90;;;;;;5054575;28;20305;-78
2022/11/30 02:46:26;;;;;;;0.50;0.40;;;7.20;99.90;;;;;;5049970;28;20215;-80
2022/11/30 02:48:59;;;;;;;0.50;0.40;;;7.20;99.90;;;;;;5054913;28;20183;-79
2022/11/30 02:51:29;;;;;;;0.50;0.40;;;7.20;99.90;;;;;;5055313;28;20270;-77
2022/11/30 02:53:56;;;;;;;0.95;0.95;;;7.20;99.90;;;;;;5054215;28;20201;-79
2022/11/30 02:56:24;;;;;;;1.30;1.05;;;7.20;99.90;;;;;;5055069;28;20222;-79
2022/11/30 02:58:51;;;;;;;0.50;0.40;;;7.20;99.90;;;;;;5055739;28;20285;-81
2022/11/30 03:01:20;;;;;;;0.50;0.40;;;7.20;99.90;;;;;;5055302;28;20199;-77
2022/11/30 03:03:46;;;;;;;0.77;0.77;;;7.10;99.90;;;;;;5055319;28;20317;-79
2022/11/30 03:06:13;;;;;;;1.60;1.50;;;7.10;99.90;;;;;;5054446;28;20221;-78
2022/11/30 03:08:40;;;;;;;0.50;0.40;;;7.10;99.90;;;;;;5055474;28;20198;-79
2022/11/30 03:11:07;;;;;;;1.95;1.85;;;7.10;99.90;;;;;;5055734;28;20209;-77
2022/11/30 03:13:34;;;;;;;0.50;0.50;;;7.00;99.90;;;;;;5056062;28;20530;-79
2022/11/30 03:16:06;;;;;;;0.50;0.40;;;7.10;99.90;;;;;;5045673;28;20237;-78
2022/11/30 03:18:35;;;;;;;4.05;1.50;;;7.00;99.90;;;;;;5053051;28;20657;-78
2022/11/30 03:21:05;;;;;;;1.58;1.50;;;7.00;99.90;;;;;;5055113;28;20190;-79
2022/11/30 03:23:32;;;;;;;0.50;0.40;;;7.10;99.90;;;;;;5055491;28;20207;-79
2022/11/30 03:25:59;;;;;;;0.50;0.40;;;7.10;99.90;;;;;;5054956;28;20326;-77
2022/11/30 03:28:26;;;;;;;0.50;0.40;;;7.00;99.90;;;;;;5056245;28;20191;-80
2022/11/30 03:30:53;;;;;;;0.50;0.40;;;7.00;99.90;;;;;;5055536;28;20297;-78
2022/11/30 03:33:20;;;;;;;0.50;0.50;;;6.90;99.90;;;;;;5055750;28;20194;-80
2022/11/30 03:35:48;;;;;;;0.50;0.40;;;7.00;99.90;;;;;;5055032;28;20219;-81
2022/11/30 03:38:15;;;;;;;0.50;0.40;;;6.90;99.90;;;;;;5055289;28;20561;-77
2022/11/30 03:40:41;;;;;;;0.50;0.40;;;6.90;99.90;;;;;;5055879;28;20285;-79
2022/11/30 03:43:08;;;;;;;1.13;1.13;;;6.90;99.90;;;;;;5055667;28;20297;-79
2022/11/30 03:45:35;;;;;;;0.50;0.40;;;6.90;99.90;;;;;;5049422;28;20221;-79
2022/11/30 03:48:02;;;;;;;0.50;0.50;;;6.90;99.90;;;;;;5055421;28;20187;-79
2022/11/30 03:50:28;;;;;;;0.50;0.40;;;6.90;99.90;;;;;;5055491;28;20198;-79
2022/11/30 03:52:57;;;;;;;1.95;1.58;;;6.90;99.90;;;;;;5055754;28;20191;-78
2022/11/30 03:55:23;;;;;;;0.50;0.40;;;6.90;99.90;;;;;;5054023;28;20223;-81
2022/11/30 03:57:50;;;;;;;0.50;0.40;;;6.90;99.90;;;;;;5054303;28;20623;-78
2022/11/30 04:00:19;;;;;;;11.02;3.25;;;6.90;99.90;;;;;;5054296;28;20738;-80
2022/11/30 04:02:46;;;;;;;6.18;1.88;;;6.90;99.90;;;;;;5053605;28;20747;-81
2022/11/30 04:05:12;;;;;;;1.70;1.60;;;6.80;99.90;;;;;;5053038;28;20241;-80
2022/11/30 04:07:39;;;;;;;0.50;0.40;;;6.90;99.90;;;;;;5053910;28;20209;-79
2022/11/30 04:10:09;;;;;;;0.50;0.40;;;6.80;99.90;;;;;;5053813;28;20258;-79
2022/11/30 04:12:36;;;;;;;10.57;3.83;;;6.80;99.90;;;;;;5053975;28;20286;-81
2022/11/30 04:15:03;;;;;;;0.50;0.40;;;6.80;99.90;;;;;;5051567;28;20278;-80
2022/11/30 04:17:30;;;;;;;0.50;0.40;;;6.80;99.90;;;;;;5050447;28;20194;-80
2022/11/30 04:19:56;;;;;;;0.50;0.40;;;6.80;99.90;;;;;;5052973;28;20201;-80
2022/11/30 04:22:23;;;;;;;0.50;0.40;;;6.80;99.90;;;;;;5053734;28;20256;-81
2022/11/30 04:24:50;;;;;;;0.50;0.40;;;6.70;99.90;;;;;;5052701;28;20306;-80
2022/11/30 04:27:18;;;;;;;0.80;0.80;;;6.80;99.90;;;;;;5053677;28;20194;-81
2022/11/30 04:29:45;;;;;;;0.50;0.40;;;6.80;99.90;;;;;;5053508;28;20221;-81
2022/11/30 04:32:12;;;;;;;0.50;0.40;;;6.80;99.90;;;;;;5053024;28;20281;-80
2022/11/30 04:34:39;;;;;;;0.50;0.40;;;6.80;99.90;;;;;;5051874;28;20195;-80
2022/11/30 04:37:05;;;;;;;0.50;0.40;;;6.80;99.90;;;;;;5053431;28;20264;-80
2022/11/30 04:39:33;;;;;;;0.50;0.40;;;6.90;99.90;;;;;;5053367;28;20197;-79
2022/11/30 04:42:00;;;;;;;0.50;0.40;;;6.90;99.90;;;;;;5052942;28;20201;-78
2022/11/30 04:44:28;;;;;;;0.50;0.43;;;6.80;99.90;;;;;;5056613;28;20217;-80
2022/11/30 04:46:54;;;;;;;0.50;0.40;;;6.80;99.90;;;;;;5052534;28;20219;-80
2022/11/30 04:49:21;;;;;;;1.00;0.77;;;6.80;99.90;;;;;;5056501;28;20197;-79
2022/11/30 04:51:48;;;;;;;0.50;0.40;;;6.90;99.90;;;;;;5057116;28;20201;-80
2022/11/30 04:54:15;;;;;;;2.70;1.10;;;6.90;99.90;;;;;;5056132;28;20186;-80
2022/11/30 04:56:42;;;;;;;0.50;0.50;;;6.90;99.90;;;;;;5056223;28;20211;-80
2022/11/30 04:59:08;;;;;;;5.28;2.05;;;6.90;99.90;;;;;;5056714;28;20672;-79
2022/11/30 05:01:36;;;;;;;0.50;0.40;;;6.90;99.90;;;;;;5067774;28;20209;-80
2022/11/30 05:04:03;;;;;;;2.67;2.47;;;6.90;99.90;;;;;;5070900;28;20274;-80
2022/11/30 05:06:30;;;;;;;20.40;19.45;;;6.80;99.90;;;;;;5073860;28;20234;-81
2022/11/30 05:08:57;;;;;;;0.88;0.88;;;6.80;99.90;;;;;;5073010;28;20222;-80
2022/11/30 05:11:24;;;;;;;0.50;0.40;;;6.80;99.90;;;;;;5060168;28;20277;-80
2022/11/30 05:13:51;;;;;;;0.95;0.95;;;6.80;99.90;;;;;;5058384;28;20190;-79
2022/11/30 05:16:17;;;;;;;1.85;1.75;;;6.80;99.90;;;;;;5052412;28;20234;-80
2022/11/30 05:18:45;;;;;;;0.50;0.50;;;6.80;99.90;;;;;;5057595;28;20206;-81
2022/11/30 05:21:12;;;;;;;7.40;3.25;;;6.80;99.90;;;;;;5058112;28;20282;-81
2022/11/30 05:23:39;;;;;;;0.50;0.40;;;6.80;99.90;;;;;;5058702;28;20305;-79
2022/11/30 05:26:06;;;;;;;0.50;0.40;;;6.80;99.90;;;;;;5056336;28;20276;-79
2022/11/30 05:28:33;;;;;;;0.60;0.57;;;6.80;99.90;;;;;;5057485;28;20195;-81
2022/11/30 05:31:03;;;;;;;0.50;0.50;;;6.70;99.90;;;;;;5057806;28;20191;-79
2022/11/30 05:33:30;;;;;;;0.85;0.85;;;6.80;99.90;;;;;;5057738;28;20197;-80
2022/11/30 05:35:58;;;;;;;0.50;0.40;;;6.80;99.90;;;;;;5055952;28;20245;-80
2022/11/30 05:38:25;;;;;;;0.50;0.40;;;6.80;99.90;;;;;;5056863;28;20687;-79
2022/11/30 05:40:51;;;;;;;0.50;0.40;;;6.70;99.90;;;;;;5056846;28;20198;-81
2022/11/30 05:43:18;;;;;;;3.83;1.95;;;6.70;99.90;;;;;;5057606;28;20212;-81
2022/11/30 05:45:45;;;;;;;0.50;0.43;;;6.70;99.90;;;;;;5051717;28;20310;-80
2022/11/30 05:48:12;;;;;;;0.50;0.40;;;6.60;99.90;;;;;;5056853;28;20183;-79
2022/11/30 05:50:39;;;;;;;0.50;0.40;;;6.60;99.90;;;;;;5056675;28;20201;-79
2022/11/30 05:53:07;;;;;;;0.50;0.40;;;6.60;99.90;;;;;;5057762;28;20281;-80
2022/11/30 05:55:34;;;;;;;1.48;1.38;;;6.60;99.90;;;;;;5056705;28;20230;-81
2022/11/30 05:58:01;;;;;;;0.50;0.40;;;6.60;99.90;;;;;;5057410;28;20285;-80
2022/11/30 06:00:28;;;;;;;0.50;0.50;;;6.60;99.90;;;;;;5057208;28;20203;-79
2022/11/30 06:02:57;;;;;;;2.92;1.35;;;6.50;99.90;;;;;;5056087;28;20560;-78
2022/11/30 06:05:24;;;;;;;0.50;0.40;;;6.50;99.90;;;;;;5056338;28;20228;-79
2022/11/30 06:07:51;;;;;;;0.50;0.40;;;6.50;99.90;;;;;;5057005;28;20676;-80
2022/11/30 06:10:19;;;;;;;0.50;0.40;;;6.60;99.90;;;;;;5057279;28;20293;-79
2022/11/30 06:12:47;;;;;;;3.80;3.55;;;6.70;99.90;;;;;;5056110;28;20190;-80
2022/11/30 06:15:14;;;;;;;0.60;0.60;;;6.60;99.90;;;;;;5051027;28;20226;-81
2022/11/30 06:17:41;;;;;;;0.50;0.40;;;6.60;99.90;;;;;;5053429;28;20197;-79
2022/11/30 06:20:09;;;;;;;0.50;0.40;;;6.60;99.90;;;;;;5056312;28;20194;-80
2022/11/30 06:22:35;;;;;;;3.75;1.75;;;6.60;99.90;;;;;;5055574;28;20657;-79
2022/11/30 06:25:03;;;;;;;0.50;0.50;;;6.60;99.90;;;;;;5054483;28;20308;-80
2022/11/30 06:27:32;;;;;;;0.63;0.63;;;6.60;99.90;;;;;;5055445;28;20198;-78
2022/11/30 06:29:59;;;;;;;0.50;0.40;;;6.60;99.90;;;;;;5055245;28;20194;-81
2022/11/30 06:32:25;;;;;;;0.50;0.40;;;6.60;99.90;;;;;;5052957;28;20195;-80
2022/11/30 06:34:52;;;;;;;0.50;0.40;;;6.50;99.90;;;;;;5054191;28;20269;-78
2022/11/30 06:37:19;;;;;;;0.50;0.40;;;6.50;99.90;;;;;;5055224;28;20282;-79
2022/11/30 06:39:46;;;;;;;0.50;0.40;;;6.50;99.90;;;;;;5055208;28;20205;-80
2022/11/30 06:42:12;;;;;;;5.57;3.17;;;6.50;99.90;;;;;;5055795;28;20301;-79
2022/11/30 06:44:41;;;;;;;0.60;0.60;;;6.60;99.90;;;;;;5054732;28;20279;-79
2022/11/30 06:47:07;;;;;;;2.15;2.05;;;6.60;99.90;;;;;;5054655;28;20215;-78
2022/11/30 06:49:34;;;;;;;2.78;2.58;;;6.60;99.90;;;;;;5054672;28;20195;-79
2022/11/30 06:52:01;;;;;;;2.88;2.67;;;6.60;99.90;;;;;;5054859;28;20281;-79
2022/11/30 06:54:28;;;;;;;5.75;2.65;;;6.70;99.90;;;;;;5054419;28;20186;-78
2022/11/30 06:56:56;;;;;;;0.50;0.40;;;6.60;99.90;;;;;;5054858;28;20642;-81
2022/11/30 06:59:23;;;;;;;0.50;0.50;;;6.60;99.90;;;;;;5054554;28;20228;-81
2022/11/30 07:01:51;;;;;;;0.50;0.40;;;6.60;99.90;;;;;;5055347;28;20277;-79
2022/11/30 07:04:18;;;;;;;2.05;1.95;;;6.60;99.90;;;;;;5053746;28;20215;-79
2022/11/30 07:06:44;;;;;;;10.65;3.60;;;6.60;99.90;;;;;;5053832;28;20270;-79
2022/11/30 07:09:12;;;;;;;0.50;0.40;;;6.60;99.90;;;;;;5053532;28;20198;-79
2022/11/30 07:11:39;;;;;;;1.83;1.73;;;6.60;99.90;;;;;;5054535;28;20703;-78
2022/11/30 07:14:05;;;;;;;0.70;0.70;;;6.70;99.90;;;;;;5052007;28;20233;-79
2022/11/30 07:16:32;;;;;;;0.50;0.40;;;6.70;99.90;;;;;;5053431;28;20222;-78
2022/11/30 07:19:00;;;;;;;0.50;0.40;;;6.70;99.90;;;;;;5052949;28;20216;-78
2022/11/30 07:21:27;;;;;;;0.50;0.45;;;6.70;99.90;;;;;;5034717;28;20565;-78
2022/11/30 07:26:38;;;;;;;0.50;0.40;;;6.70;99.90;;;;;;5038471;28;20242;-82
2022/11/30 07:29:05;;;;;;;1.48;1.38;;;6.70;99.90;;;;;;5054279;28;20195;-78
2022/11/30 07:31:33;;;;;;;0.50;0.40;;;6.70;99.90;;;;;;5053987;28;20191;-80
2022/11/30 07:34:05;;;;;;;2.88;2.25;;;6.70;99.90;;;;;;5052063;28;20191;-79
2022/11/30 07:36:33;;;;;;;0.50;0.40;;;6.60;99.90;;;;;;5054027;28;20221;-80
2022/11/30 07:39:00;;;;;;;0.50;0.40;;;6.60;99.90;;;;;;5053967;28;20205;-81
2022/11/30 07:41:27;;;;;;;0.90;0.90;;;6.70;99.90;;;;;;5051685;28;20191;-79
2022/11/30 07:43:54;;;;;;;0.50;0.40;;;6.70;99.90;;;;;;5032661;28;20191;-78
2022/11/30 07:46:21;;;;;;;0.50;0.40;;;6.80;99.90;;;;;;5033182;28;20218;-79
2022/11/30 07:48:48;;;;;;;2.58;2.38;;;6.80;99.90;;;;;;5034459;28;20748;-80
2022/11/30 07:51:18;;;;;;;0.80;0.80;;;6.70;99.90;;;;;;5034162;28;20594;-79
2022/11/30 07:53:45;;;;;;;0.50;0.40;;;6.70;99.90;;;;;;5033501;28;20198;-76
2022/11/30 07:56:15;;;;;;;0.50;0.40;;;6.70;99.90;;;;;;5031616;28;20310;-79
2022/11/30 07:58:42;;;;;;;0.50;0.40;;;6.70;99.90;;;;;;5032772;28;20195;-79
2022/11/30 08:01:10;;;;;;;0.57;0.55;;;6.70;99.90;;;;;;5032644;28;20290;-80
2022/11/30 08:03:37;;;;;;;0.50;0.40;;;6.70;99.90;;;;;;5042284;28;20190;-79
2022/11/30 08:06:06;;;;;;;0.50;0.40;;;6.80;99.90;;;;;;5051165;28;20580;-79
2022/11/30 08:08:36;;;;;;;0.50;0.40;;;6.80;99.90;;;;;;5053222;28;20660;-79
2022/11/30 08:11:04;;;;;;;2.75;2.55;;;6.70;99.90;;;;;;5053013;28;20283;-79
2022/11/30 08:13:31;;;;;;;0.50;0.40;;;6.80;99.90;;;;;;5053035;28;20199;-79
2022/11/30 08:16:01;;;;;;;2.17;0.93;;;6.80;99.90;;;;;;5050082;28;20229;-79
2022/11/30 08:18:28;;;;;;;5.38;3.25;;;6.80;99.90;;;;;;5056343;28;20291;-78
2022/11/30 08:20:58;;;;;;;0.50;0.50;;;6.80;99.90;;;;;;5056291;28;20199;-78
2022/11/30 08:23:25;;;;;;;0.80;0.60;;;6.70;99.90;;;;;;5056488;28;20198;-79
2022/11/30 08:25:53;;;;;;;0.70;0.70;;;6.70;99.90;;;;;;5055483;28;20219;-79
2022/11/30 08:28:20;;;;;;;0.50;0.40;;;6.80;99.90;;;;;;5056666;28;20205;-79
2022/11/30 08:30:47;;;;;;;0.50;0.40;;;6.80;99.90;;;;;;5056438;28;20201;-79
2022/11/30 08:33:14;;;;;;;23.95;4.47;;;6.80;99.90;;;;;;5055167;28;20536;-79
2022/11/30 08:35:41;;;;;;;4.15;3.20;;;6.80;99.90;;;;;;5055301;28;20202;-79
2022/11/30 08:38:08;;;;;;;0.50;0.40;;;6.80;99.90;;;;;;5056224;28;20210;-79
2022/11/30 08:40:35;;;;;;;2.47;2.38;;;6.70;99.90;;;;;;5056649;28;20190;-79
2022/11/30 08:43:03;;;;;;;0.50;0.40;;;6.80;99.90;;;;;;5056137;28;20286;-80
2022/11/30 08:45:29;;;;;;;1.17;1.10;;;6.80;99.90;;;;;;5056312;28;20893;-80
2022/11/30 08:47:56;;;;;;;3.47;3.30;;;6.70;99.90;;;;;;5055400;28;20195;-79
2022/11/30 08:50:23;;;;;;;2.45;2.35;;;6.70;99.90;;;;;;5055961;28;20289;-79
2022/11/30 08:52:50;;;;;;;0.65;0.65;;;6.80;99.90;;;;;;5056161;28;20207;-79
2022/11/30 08:55:17;;;;;;;0.50;0.40;;;6.90;99.90;;;;;;5055764;28;20222;-79
2022/11/30 08:57:43;;;;;;;2.15;2.05;;;6.80;99.90;;;;;;5054630;28;20190;-79
2022/11/30 09:00:13;;;;;;;1.60;1.50;;;6.80;99.90;;;;;;5054421;28;20205;-78
2022/11/30 09:02:40;;;;;;;0.70;0.70;;;6.90;99.90;;;;;;5052771;28;20207;-78
2022/11/30 09:05:07;;;;;;;0.52;0.52;;;6.90;99.90;;;;;;5054071;28;20241;-78
2022/11/30 09:07:34;;;;;;;0.50;0.40;;;6.80;99.90;;;;;;5054346;28;20611;-77
2022/11/30 09:10:01;;;;;;;0.70;0.70;;;6.80;99.90;;;;;;5054242;28;20194;-78
2022/11/30 09:12:28;;;;;;;3.40;3.10;;;6.80;99.90;;;;;;5053985;28;20201;-78
2022/11/30 09:14:54;;;;;;;0.50;0.40;;;6.80;99.90;;;;;;5052796;28;20201;-78
2022/11/30 09:17:23;;;;;;;0.85;0.85;;;6.80;99.90;;;;;;5054058;28;20270;-78
2022/11/30 09:19:49;;;;;;;0.98;0.98;;;6.90;99.90;;;;;;5054544;28;20638;-78
2022/11/30 09:22:17;;;;;;;1.77;1.67;;;6.80;99.90;;;;;;5054096;28;20199;-78
2022/11/30 09:24:43;;;;;;;1.45;1.38;;;6.80;99.90;;;;;;5053309;28;20722;-78
2022/11/30 09:27:10;;;;;;;1.83;1.73;;;6.90;99.90;;;;;;5054382;28;20201;-80
2022/11/30 09:29:37;;;;;;;3.90;3.53;;;6.80;99.90;;;;;;5055083;28;20201;-77
2022/11/30 09:32:04;;;;;;;4.82;2.90;;;6.80;99.90;;;;;;5054887;28;20194;-79
2022/11/30 09:34:32;;;;;;;1.83;1.73;;;6.90;99.90;;;;;;5053471;28;20201;-79
2022/11/30 09:36:59;;;;;;;0.73;0.73;;;6.90;99.90;;;;;;5055194;28;20226;-79
2022/11/30 09:39:26;;;;;;;3.20;2.95;;;6.90;99.90;;;;;;5055196;28;20206;-79
2022/11/30 09:42:20;;;;;;;0.70;0.50;;;6.80;99.90;;;;;;5055471;28;20656;-79
2022/11/30 09:44:58;;;;;;;1.55;1.30;;;6.80;99.90;;;;;;5054717;28;20202;-79
2022/11/30 09:47:54;;;;;;;2.97;2.78;;;6.70;99.90;;;;;;5054628;28;20222;-79
2022/11/30 09:50:25;;;;;;;1.25;0.85;;;6.60;99.90;;;;;;5069126;28;20247;-79
2022/11/30 09:52:55;;;;;;;0.50;0.40;;;6.60;99.90;;;;;;5067168;28;20190;-79
2022/11/30 09:55:26;;;;;;;0.60;0.60;;;6.60;99.90;;;;;;5069349;28;20624;-80
2022/11/30 09:57:56;;;;;;;1.70;1.60;;;6.60;99.90;;;;;;5065954;28;20194;-79
2022/11/30 10:00:24;;;;;;;1.73;1.63;;;6.60;99.90;;;;;;5068793;28;20230;-78
2022/11/30 10:02:52;;;;;;;5.75;4.22;;;6.80;99.90;;;;;;5058634;28;20277;-79
2022/11/30 10:05:23;;;;;;;2.45;2.35;;;6.80;99.90;;;;;;5053814;28;20663;-79
2022/11/30 10:08:16;;;;;;;1.25;0.95;;;6.70;99.90;;;;;;5055009;28;20199;-77
2022/11/30 10:10:50;;;;;;;0.80;0.80;;;6.80;99.90;;;;;;5054546;28;20708;-79
2022/11/30 10:13:30;;;;;;;5.95;2.70;;;6.90;99.90;;;;;;5056281;28;20244;-78
2022/11/30 10:16:09;;;;;;;0.50;0.40;;;6.80;99.90;;;;;;5054951;28;20833;-78
2022/11/30 10:18:45;;;;;;;0.60;0.60;;;6.80;99.90;;;;;;5055688;28;20270;-80
2022/11/30 10:21:26;;;;;;;5.47;5.18;;;6.90;99.90;;;;;;5055566;28;20539;-80
2022/11/30 10:24:05;;;;;;;6.35;2.45;;;6.90;99.90;;;;;;5055117;28;20552;-76
2022/11/30 10:26:36;;;;;;;0.50;0.40;;;6.90;99.90;;;;;;5054053;28;20219;-78
2022/11/30 10:29:13;;;;;;;4.88;1.77;;;7.00;99.90;;;;;;5054542;28;20221;-79
2022/11/30 10:31:42;;;;;;;0.60;0.60;;;7.00;99.90;;;;;;5055319;28;20246;-78
2022/11/30 10:34:19;;;;;;;0.73;0.73;;;7.00;99.90;;;;;;5045411;28;20190;-79
2022/11/30 10:36:52;;;;;;;0.95;0.95;;;7.00;99.90;;;;;;5056035;28;20202;-80
2022/11/30 10:39:24;;;;;;;1.25;1.25;;;7.10;99.90;;;;;;5055991;28;20187;-79
2022/11/30 10:41:56;;;;;;;1.55;1.35;;;7.10;99.90;;;;;;5054915;28;20214;-80
2022/11/30 10:44:27;;;;;;;0.50;0.40;;;7.20;99.90;;;;;;5053009;28;20199;-78
2022/11/30 10:46:59;;;;;;;2.67;2.58;;;7.20;99.90;;;;;;5055689;28;20214;-79
2022/11/30 10:49:28;;;;;;;1.35;1.30;;;7.20;99.90;;;;;;5055479;28;20180;-80
2022/11/30 10:52:01;;;;;;;0.50;0.40;;;7.20;99.90;;;;;;5055143;28;20199;-75
2022/11/30 10:54:30;;;;;;;1.50;1.40;;;7.30;99.90;;;;;;5056796;28;20187;-79
2022/11/30 10:56:59;;;;;;;0.50;0.50;;;7.20;99.90;;;;;;5055093;28;20220;-79
2022/11/30 10:59:31;;;;;;;4.40;3.40;;;7.30;99.90;;;;;;5054868;28;20194;-80
2022/11/30 11:01:58;;;;;;;1.40;1.40;;;7.30;99.90;;;;;;5055429;28;20258;-79
2022/11/30 11:04:26;;;;;;;0.50;0.45;;;7.30;99.90;;;;;;5053261;28;20214;-80
2022/11/30 11:06:54;;;;;;;1.20;1.10;;;7.30;99.90;;;;;;5014923;28;20224;-80
2022/11/30 11:09:36;;;;;;;0.50;0.40;;;7.20;99.90;;;;;;5013985;28;20207;-79
2022/11/30 11:12:05;;;;;;;0.50;0.40;;;7.20;99.90;;;;;;5014060;28;20216;-80
2022/11/30 11:14:32;;;;;;;0.50;0.50;;;7.20;99.90;;;;;;5012632;28;20200;-80
2022/11/30 11:17:06;;;;;;;1.85;1.75;;;7.20;99.90;;;;;;5013202;28;20257;-80
2022/11/30 11:19:38;;;;;;;0.50;0.40;;;7.30;99.90;;;;;;5014012;28;20303;-79
2022/11/30 11:22:13;;;;;;;0.50;0.40;;;7.30;99.90;;;;;;5013779;28;20190;-79
2022/11/30 11:24:42;;;;;;;5.13;4.93;;;7.30;99.90;;;;;;5012363;28;20201;-79
2022/11/30 11:27:21;;;;;;;0.50;0.40;;;7.40;99.90;;;;;;5013772;28;20651;-79
2022/11/30 11:30:00;;;;;;;3.90;2.53;;;7.40;99.90;;;;;;5013787;28;20334;-80
2022/11/30 11:32:27;;;;;;;0.50;0.40;;;7.40;99.90;;;;;;5014020;28;20193;-79
2022/11/30 11:34:54;;;;;;;0.60;0.50;;;7.40;99.90;;;;;;5036453;28;20644;-79
2022/11/30 11:37:25;;;;;;;1.60;1.50;;;7.40;99.90;;;;;;5052920;28;20252;-79
2022/11/30 11:40:03;;;;;;;0.50;0.50;;;7.50;99.90;;;;;;5052628;28;20179;-79
2022/11/30 11:42:35;;;;;;;2.88;0.95;;;7.60;99.90;;;;;;5053777;28;20201;-79
2022/11/30 11:45:04;;;;;;;0.50;0.40;;;7.60;99.90;;;;;;5051720;28;20617;-79
2022/11/30 11:47:38;;;;;;;0.60;0.60;;;7.60;99.90;;;;;;5052354;28;20361;-79
2022/11/30 11:50:22;;;;;;;0.50;0.40;;;7.60;99.90;;;;;;5051802;28;20185;-79
2022/11/30 11:52:50;;;;;;;0.60;0.60;;;7.60;99.90;;;;;;5052369;28;20198;-79
2022/11/30 11:55:20;;;;;;;0.50;0.40;;;7.60;99.90;;;;;;5051698;28;20218;-79
2022/11/30 11:57:52;;;;;;;1.45;1.35;;;7.60;99.90;;;;;;5052498;28;20193;-78
2022/11/30 12:00:22;;;;;;;0.90;0.90;;;7.60;99.90;;;;;;5052587;28;20185;-80
2022/11/30 12:02:57;;;;;;;0.50;0.40;;;7.60;99.90;;;;;;5051415;28;20233;-79
2022/11/30 12:05:29;;;;;;;0.50;0.40;;;7.70;99.90;;;;;;5051852;28;20275;-79
2022/11/30 12:08:07;;;;;;;0.52;0.45;;;7.70;99.90;;;;;;5053316;28;20182;-79
2022/11/30 12:10:41;;;;;;;19.48;10.45;;;7.70;99.90;;;;;;5052626;28;20660;-79
2022/11/30 12:13:15;;;;;;;0.50;0.50;;;7.70;99.90;;;;;;5053369;28;20219;-80
2022/11/30 12:15:55;;;;;;;0.50;0.40;;;7.70;99.90;;;;;;5050819;28;20222;-79
2022/11/30 12:18:25;;;;;;;0.50;0.40;;;7.60;99.90;;;;;;5052800;28;20199;-79
2022/11/30 12:21:00;;;;;;;34.00;10.10;;;7.60;99.90;;;;;;5053137;28;20194;-79
2022/11/30 12:23:59;;;;;;;0.50;0.40;;;7.60;99.90;;;;;;5052785;28;20186;-78
2022/11/30 12:26:37;;;;;;;0.80;0.80;;;7.60;99.90;;;;;;5052717;28;20587;-79
2022/11/30 12:29:20;;;;;;;1.33;1.33;;;7.60;99.90;;;;;;5052521;28;20174;-77
2022/11/30 12:32:01;;;;;;;4.35;4.15;;;7.50;99.90;;;;;;5052334;28;20286;-79
2022/11/30 12:34:47;;;;;;;0.60;0.60;;;7.50;99.90;;;;;;5049952;28;20661;-79
2022/11/30 12:37:22;;;;;;;5.50;4.90;;;7.40;99.90;;;;;;5052613;28;20282;-79
2022/11/30 12:40:02;;;;;;;3.05;1.95;;;7.40;99.90;;;;;;5052507;28;20185;-79
2022/11/30 12:42:37;;;;;;;0.50;0.50;;;7.30;99.90;;;;;;5052498;28;20259;-79
2022/11/30 12:45:15;;;;;;;2.35;2.15;;;7.40;99.90;;;;;;5051077;28;20261;-79
2022/11/30 12:47:53;;;;;;;0.50;0.40;;;7.40;99.90;;;;;;5052505;28;20706;-79
2022/11/30 12:50:32;;;;;;;4.85;4.50;;;7.40;99.90;;;;;;5052719;28;20209;-79
2022/11/30 12:53:08;;;;;;;0.55;0.55;;;7.30;99.90;;;;;;5053483;28;20183;-78
2022/11/30 12:55:40;;;;;;;0.50;0.40;;;7.30;99.90;;;;;;5051927;28;20301;-79
2022/11/30 12:58:19;;;;;;;0.50;0.40;;;7.30;99.90;;;;;;5052918;28;20199;-79
2022/11/30 13:00:58;;;;;;;0.50;0.40;;;7.30;99.90;;;;;;5052871;28;20209;-79
2022/11/30 13:03:46;;;;;;;0.50;0.40;;;7.30;99.90;;;;;;5051873;28;20667;-77
2022/11/30 13:06:17;;;;;;;0.50;0.40;;;7.40;99.90;;;;;;5044224;28;20210;-79
2022/11/30 13:08:53;;;;;;;3.90;3.60;;;7.50;99.90;;;;;;5056366;28;20183;-79
2022/11/30 13:11:24;;;;;;;1.13;1.13;;;7.50;99.90;;;;;;5056385;28;20682;-79
2022/11/30 13:13:55;;;;;;;0.50;0.40;;;7.60;99.90;;;;;;5056175;28;20293;-78